createdAt,value
2023-03-07T00:01:37.207Z,83.30
2023-03-07T00:04:40.109Z,83.20
2023-03-07T00:07:42.960Z,83.40
2023-03-07T00:10:45.850Z,83.30
2023-03-07T00:13:48.825Z,83.60
2023-03-07T00:16:53.271Z,84.00
2023-03-07T00:19:56.207Z,83.90
2023-03-07T00:22:59.068Z,84.00
2023-03-07T00:26:03.467Z,84.20
2023-03-07T00:29:07.858Z,85.40
2023-03-07T00:32:12.090Z,85.70
2023-03-07T00:35:15.363Z,85.30
2023-03-07T00:38:18.260Z,85.50
2023-03-07T00:41:22.627Z,84.70
2023-03-07T00:44:27.141Z,85.10
2023-03-07T00:47:31.315Z,84.90
2023-03-07T00:50:35.846Z,85.50
2023-03-07T00:53:39.740Z,85.20
2023-03-07T00:56:42.651Z,84.80
2023-03-07T00:59:45.798Z,85.30
2023-03-07T01:02:51.641Z,85.20
2023-03-07T01:05:55.624Z,84.70
2023-03-07T01:09:00.634Z,84.80
2023-03-07T01:12:07.156Z,84.80
2023-03-07T01:15:10.750Z,84.70
2023-03-07T01:18:15.011Z,84.60
2023-03-07T01:21:19.719Z,84.50
2023-03-07T01:24:22.593Z,84.50
2023-03-07T01:27:25.429Z,84.40
2023-03-07T01:30:28.267Z,85.00
2023-03-07T01:33:32.919Z,85.10
2023-03-07T01:36:37.411Z,84.80
2023-03-07T01:39:40.299Z,84.50
2023-03-07T01:42:43.171Z,84.40
2023-03-07T01:46:26.813Z,84.90
2023-03-07T01:49:35.263Z,84.50
2023-03-07T01:52:40.919Z,84.10
2023-03-07T01:55:43.967Z,83.80
2023-03-07T01:58:47.919Z,83.70
2023-03-07T02:01:52.206Z,84.70
2023-03-07T02:05:01.900Z,83.70
2023-03-07T02:08:08.395Z,84.10
2023-03-07T02:11:12.728Z,84.00
2023-03-07T02:14:15.574Z,83.90
2023-03-07T02:17:18.898Z,83.80
2023-03-07T02:20:34.458Z,84.20
2023-03-07T02:23:43.529Z,83.90
2023-03-07T02:26:48.958Z,84.00
2023-03-07T02:29:51.842Z,84.00
2023-03-07T02:32:54.689Z,83.90
2023-03-07T02:36:01.267Z,83.90
2023-03-07T02:39:06.869Z,83.80
2023-03-07T02:42:15.142Z,84.00
2023-03-07T02:45:20.142Z,84.20
2023-03-07T02:48:23.305Z,84.10
2023-03-07T02:51:26.212Z,84.20
2023-03-07T02:54:29.053Z,84.00
2023-03-07T02:57:33.255Z,84.00
2023-03-07T03:00:37.064Z,83.90
2023-03-07T03:03:39.946Z,83.70
2023-03-07T03:06:42.832Z,84.00
2023-03-07T03:09:45.680Z,83.90
2023-03-07T03:12:49.880Z,84.00
2023-03-07T03:15:56.737Z,84.20
2023-03-07T03:19:00.133Z,84.30
2023-03-07T03:22:04.143Z,84.40
2023-03-07T03:25:09.879Z,84.10
2023-03-07T03:28:14.374Z,84.10
2023-03-07T03:31:17.958Z,84.50
2023-03-07T03:34:21.008Z,84.00
2023-03-07T03:37:23.971Z,84.50
2023-03-07T03:40:26.793Z,84.00
2023-03-07T03:43:30.979Z,83.70
2023-03-07T03:46:33.902Z,83.80
2023-03-07T03:49:36.735Z,83.60
2023-03-07T03:52:39.589Z,83.80
2023-03-07T03:55:42.499Z,83.60
2023-03-07T03:58:48.495Z,83.50
2023-03-07T04:01:51.741Z,83.90
2023-03-07T04:04:54.632Z,83.50
2023-03-07T04:07:57.477Z,83.60
2023-03-07T04:11:00.406Z,83.80
2023-03-07T04:14:04.882Z,83.20
2023-03-07T04:17:07.729Z,83.10
2023-03-07T04:20:17.353Z,84.20
2023-03-07T04:23:21.679Z,83.80
2023-03-07T04:26:24.632Z,83.80
2023-03-07T04:29:30.414Z,83.60
2023-03-07T04:32:33.470Z,83.90
2023-03-07T04:35:36.357Z,84.20
2023-03-07T04:38:40.567Z,84.00
2023-03-07T04:41:43.458Z,83.70
2023-03-07T04:44:47.648Z,83.50
2023-03-07T04:47:50.490Z,83.40
2023-03-07T04:50:53.630Z,83.20
2023-03-07T04:53:56.489Z,83.10
2023-03-07T04:56:59.328Z,83.10
2023-03-07T05:00:03.615Z,82.90
2023-03-07T05:03:06.476Z,82.80
2023-03-07T05:06:13.755Z,82.30
2023-03-07T05:09:16.643Z,82.10
2023-03-07T05:12:19.943Z,82.60
2023-03-07T05:15:24.137Z,82.40
2023-03-07T05:18:27.418Z,82.30
2023-03-07T05:21:30.271Z,81.90
2023-03-07T05:24:33.111Z,81.80
2023-03-07T05:27:36.037Z,81.60
2023-03-07T05:30:40.693Z,81.90
2023-03-07T05:33:43.534Z,82.00
2023-03-07T05:36:46.379Z,81.80
2023-03-07T05:39:49.257Z,82.10
2023-03-07T05:42:52.101Z,82.00
2023-03-07T05:45:56.304Z,82.30
2023-03-07T05:48:59.163Z,83.40
2023-03-07T05:52:02.312Z,82.70
2023-03-07T05:55:05.665Z,82.60
2023-03-07T05:58:08.541Z,83.00
2023-03-07T06:01:13.020Z,82.80
2023-03-07T06:04:15.899Z,82.90
2023-03-07T06:07:18.798Z,83.10
2023-03-07T06:10:22.103Z,83.00
2023-03-07T06:13:26.346Z,83.00
2023-03-07T06:16:30.557Z,83.10
2023-03-07T06:19:33.913Z,82.70
2023-03-07T06:22:38.196Z,82.60
2023-03-07T06:25:41.247Z,82.50
2023-03-07T06:28:44.554Z,91.80
2023-03-07T06:31:48.792Z,96.50
2023-03-07T06:34:51.811Z,85.30
2023-03-07T06:37:54.740Z,84.10
2023-03-07T06:40:57.801Z,83.80
2023-03-07T06:44:00.653Z,84.00
2023-03-07T06:47:04.851Z,83.20
2023-03-07T06:50:09.150Z,83.60
2023-03-07T06:53:12.085Z,83.70
2023-03-07T06:56:15.051Z,84.10
2023-03-07T06:59:17.894Z,84.40
2023-03-07T07:02:22.167Z,84.60
2023-03-07T07:05:25.472Z,84.60
2023-03-07T07:08:28.310Z,84.50
2023-03-07T07:11:31.152Z,84.10
2023-03-07T07:14:34.550Z,84.60
2023-03-07T07:17:39.768Z,84.70
2023-03-07T07:20:42.763Z,84.50
2023-03-07T07:23:45.671Z,84.90
2023-03-07T07:26:48.504Z,84.60
2023-03-07T07:29:51.813Z,84.40
2023-03-07T07:32:56.164Z,83.90
2023-03-07T07:35:59.140Z,84.10
2023-03-07T07:39:04.110Z,84.10
2023-03-07T07:42:07.263Z,83.80
2023-03-07T07:45:10.919Z,84.00
2023-03-07T07:48:15.125Z,83.20
2023-03-07T07:51:18.210Z,83.10
2023-03-07T07:54:21.095Z,83.00
2023-03-07T07:57:23.909Z,83.30
2023-03-07T08:00:27.386Z,83.20
2023-03-07T08:03:31.672Z,83.60
2023-03-07T08:06:34.528Z,83.20
2023-03-07T08:09:38.852Z,83.00
2023-03-07T08:12:41.669Z,81.20
2023-03-07T08:15:44.666Z,81.10
2023-03-07T08:18:51.650Z,81.70
2023-03-07T08:21:54.535Z,81.70
2023-03-07T08:24:57.385Z,80.70
2023-03-07T08:28:03.136Z,79.50
2023-03-07T08:31:09.633Z,80.10
2023-03-07T08:34:13.921Z,79.90
2023-03-07T08:37:16.784Z,78.80
2023-03-07T08:40:19.730Z,78.20
2023-03-07T08:43:22.633Z,78.30
2023-03-07T08:46:25.533Z,77.00
2023-03-07T08:49:29.732Z,77.20
2023-03-07T08:52:32.855Z,76.30
2023-03-07T08:55:37.043Z,76.10
2023-03-07T08:58:40.222Z,74.80
2023-03-07T09:01:43.111Z,74.60
2023-03-07T09:04:47.405Z,75.40
2023-03-07T09:07:50.304Z,73.70
2023-03-07T09:10:53.170Z,73.20
2023-03-07T09:13:56.344Z,74.20
2023-03-07T09:16:59.201Z,73.80
2023-03-07T09:20:04.271Z,73.40
2023-03-07T09:23:07.830Z,72.20
2023-03-07T09:26:11.214Z,71.80
2023-03-07T09:29:14.207Z,72.70
2023-03-07T09:32:17.320Z,72.40
2023-03-07T09:35:21.553Z,70.00
2023-03-07T09:38:24.899Z,69.80
2023-03-07T09:41:51.090Z,69.20
2023-03-07T09:45:09.618Z,69.50
2023-03-07T09:48:38.925Z,68.60
2023-03-07T09:51:44.809Z,69.80
2023-03-07T09:54:52.959Z,70.10
2023-03-07T09:57:59.658Z,68.90
2023-03-07T10:01:03.954Z,67.10
2023-03-07T10:04:13.585Z,66.30
2023-03-07T10:07:20.652Z,65.30
2023-03-07T10:10:25.783Z,65.60
2023-03-07T10:13:42.369Z,66.50
2023-03-07T10:16:50.722Z,66.50
2023-03-07T10:19:57.658Z,67.40
2023-03-07T10:23:11.585Z,66.40
2023-03-07T10:26:18.079Z,65.80
2023-03-07T10:29:25.692Z,65.30
2023-03-07T10:32:35.523Z,66.50
2023-03-07T10:35:42.080Z,66.00
2023-03-07T10:38:55.867Z,65.60
2023-03-07T10:41:58.956Z,65.30
2023-03-07T10:45:03.303Z,65.50
2023-03-07T10:48:10.240Z,63.70
2023-03-07T10:51:28.730Z,63.30
2023-03-07T10:54:34.249Z,63.60
2023-03-07T10:57:37.114Z,64.10
2023-03-07T11:00:40.017Z,62.80
2023-03-07T11:03:53.613Z,63.90
2023-03-07T11:06:59.530Z,63.30
2023-03-07T11:10:28.258Z,63.20
2023-03-07T11:13:31.829Z,63.20
2023-03-07T11:16:34.903Z,64.10
2023-03-07T11:19:40.889Z,60.60
2023-03-07T11:22:43.743Z,59.30
2023-03-07T11:25:47.906Z,59.60
2023-03-07T11:29:05.794Z,59.20
2023-03-07T11:32:15.303Z,58.70
2023-03-07T11:35:22.620Z,59.40
2023-03-07T11:38:44.255Z,60.00
2023-03-07T11:41:53.160Z,58.60
2023-03-07T11:45:01.752Z,58.40
2023-03-07T11:48:16.080Z,58.00
2023-03-07T11:51:33.583Z,58.40
2023-03-07T11:54:48.681Z,58.00
2023-03-07T11:58:05.779Z,58.90
2023-03-07T12:01:17.750Z,56.70
2023-03-07T12:04:54.424Z,56.90
2023-03-07T12:08:26.523Z,56.80
2023-03-07T12:11:59.017Z,57.20
2023-03-07T12:15:18.102Z,57.20
2023-03-07T12:18:46.491Z,57.10
2023-03-07T12:22:06.996Z,56.20
2023-03-07T12:25:24.651Z,56.30
2023-03-07T12:28:31.761Z,56.30
2023-03-07T12:31:41.167Z,55.60
2023-03-07T12:34:47.384Z,55.00
2023-03-07T12:37:54.957Z,54.90
2023-03-07T12:41:03.184Z,55.50
2023-03-07T12:44:11.278Z,53.00
2023-03-07T12:47:23.864Z,53.80
2023-03-07T12:50:31.827Z,54.40
2023-03-07T12:53:38.850Z,52.50
2023-03-07T12:56:52.641Z,54.50
2023-03-07T13:00:02.817Z,53.10
2023-03-07T13:03:08.061Z,52.20
2023-03-07T13:06:16.870Z,51.50
2023-03-07T13:09:23.175Z,51.10
2023-03-07T13:12:34.871Z,51.80
2023-03-07T13:16:06.470Z,51.80
2023-03-07T13:20:03.425Z,52.60
2023-03-07T13:23:28.919Z,53.30
2023-03-07T13:26:31.940Z,51.30
2023-03-07T13:30:04.041Z,50.70
2023-03-07T13:33:27.577Z,50.30
2023-03-07T13:36:35.760Z,49.60
2023-03-07T13:39:40.267Z,49.90
2023-03-07T13:42:47.651Z,49.50
2023-03-07T13:45:52.888Z,49.80
2023-03-07T13:49:03.907Z,49.70
2023-03-07T13:52:39.305Z,49.30
2023-03-07T13:55:46.440Z,50.30
2023-03-07T13:58:57.388Z,48.50
2023-03-07T14:02:04.195Z,49.80
2023-03-07T14:05:07.117Z,49.60
2023-03-07T14:08:14.652Z,48.70
2023-03-07T14:11:24.547Z,48.10
2023-03-07T14:14:40.500Z,49.40
2023-03-07T14:17:56.875Z,49.80
2023-03-07T14:21:09.615Z,49.80
2023-03-07T14:24:28.445Z,49.20
2023-03-07T14:27:32.909Z,48.40
2023-03-07T14:30:35.833Z,48.40
2023-03-07T14:33:40.373Z,48.50
2023-03-07T14:36:45.228Z,47.20
2023-03-07T14:40:01.105Z,48.20
2023-03-07T14:43:25.716Z,48.30
2023-03-07T14:46:35.456Z,48.90
2023-03-07T14:49:44.614Z,48.10
2023-03-07T14:52:49.714Z,48.70
2023-03-07T14:55:54.603Z,48.20
2023-03-07T14:59:01.816Z,48.50
2023-03-07T15:02:15.466Z,48.10
2023-03-07T15:05:19.759Z,48.30
2023-03-07T15:08:25.479Z,48.40
2023-03-07T15:11:32.978Z,47.40
2023-03-07T15:14:45.485Z,47.50
2023-03-07T15:17:48.703Z,47.70
2023-03-07T15:20:53.377Z,45.70
2023-03-07T15:23:57.994Z,46.40
2023-03-07T15:27:02.440Z,46.80
2023-03-07T15:30:23.885Z,46.50
2023-03-07T15:33:28.863Z,46.80
2023-03-07T15:36:31.696Z,47.50
2023-03-07T15:39:35.614Z,47.60
2023-03-07T15:42:50.631Z,47.40
2023-03-07T15:46:04.365Z,47.60
2023-03-07T15:49:07.631Z,48.10
2023-03-07T15:52:27.037Z,47.70
2023-03-07T15:55:30.469Z,48.00
2023-03-07T15:58:36.341Z,47.10
2023-03-07T16:01:40.541Z,47.60
2023-03-07T16:04:43.401Z,48.00
2023-03-07T16:07:46.584Z,48.90
2023-03-07T16:10:53.236Z,49.20
2023-03-07T16:13:56.179Z,49.60
2023-03-07T16:17:03.282Z,50.70
2023-03-07T16:20:14.659Z,50.80
2023-03-07T16:23:17.557Z,51.30
2023-03-07T16:26:23.032Z,51.00
2023-03-07T16:29:25.974Z,52.00
2023-03-07T16:32:30.239Z,52.20
2023-03-07T16:35:33.218Z,52.30
2023-03-07T16:38:36.110Z,52.40
2023-03-07T16:41:40.120Z,53.10
2023-03-07T16:44:43.066Z,53.10
2023-03-07T16:47:48.014Z,53.40
2023-03-07T16:50:50.904Z,53.50
2023-03-07T16:53:53.836Z,53.80
2023-03-07T16:56:58.311Z,54.20
2023-03-07T17:00:01.324Z,54.30
2023-03-07T17:03:05.628Z,54.30
2023-03-07T17:06:13.168Z,54.80
2023-03-07T17:09:16.020Z,55.00
2023-03-07T17:12:20.475Z,55.10
2023-03-07T17:15:26.366Z,55.20
2023-03-07T17:18:33.702Z,55.00
2023-03-07T17:21:36.538Z,55.10
2023-03-07T17:24:39.374Z,55.20
2023-03-07T17:27:44.908Z,55.20
2023-03-07T17:30:47.995Z,55.70
2023-03-07T17:33:52.235Z,56.00
2023-03-07T17:36:55.161Z,56.10
2023-03-07T17:39:58.277Z,56.10
2023-03-07T17:43:01.424Z,56.20
2023-03-07T17:46:09.816Z,56.40
2023-03-07T17:49:15.169Z,57.00
2023-03-07T17:52:18.017Z,57.20
2023-03-07T17:55:21.147Z,57.30
2023-03-07T17:58:23.977Z,57.30
2023-03-07T18:01:26.927Z,57.30
2023-03-07T18:04:31.759Z,57.50
2023-03-07T18:07:34.715Z,57.70
2023-03-07T18:10:37.544Z,58.30
2023-03-07T18:13:40.597Z,58.00
2023-03-07T18:16:43.896Z,58.70
2023-03-07T18:19:48.082Z,58.60
2023-03-07T18:22:50.915Z,59.10
2023-03-07T18:25:57.893Z,59.00
2023-03-07T18:29:00.716Z,58.90
2023-03-07T18:32:03.725Z,58.70
2023-03-07T18:35:09.316Z,59.40
2023-03-07T18:38:12.176Z,60.30
2023-03-07T18:41:17.008Z,59.90
2023-03-07T18:44:19.837Z,60.10
2023-03-07T18:47:22.710Z,60.60
2023-03-07T18:50:26.932Z,61.40
2023-03-07T18:53:30.405Z,61.50
2023-03-07T18:56:33.425Z,61.40
2023-03-07T18:59:36.383Z,61.60
2023-03-07T19:02:39.375Z,61.90
2023-03-07T19:05:48.124Z,61.80
2023-03-07T19:08:51.088Z,61.70
2023-03-07T19:11:54.208Z,61.80
2023-03-07T19:14:57.091Z,61.80
2023-03-07T19:17:59.969Z,62.00
2023-03-07T19:21:07.787Z,62.20
2023-03-07T19:24:12.522Z,63.10
2023-03-07T19:27:15.366Z,63.50
2023-03-07T19:30:19.048Z,63.10
2023-03-07T19:33:21.919Z,63.60
2023-03-07T19:36:27.659Z,63.60
2023-03-07T19:39:30.495Z,63.60
2023-03-07T19:42:33.360Z,63.60
2023-03-07T19:45:40.930Z,64.20
2023-03-07T19:48:44.330Z,64.10
2023-03-07T19:51:48.925Z,64.30
2023-03-07T19:54:53.267Z,65.00
2023-03-07T19:57:56.130Z,65.70
2023-03-07T20:00:59.384Z,65.40
2023-03-07T20:04:04.735Z,66.20
2023-03-07T20:07:08.972Z,65.80
2023-03-07T20:10:12.829Z,65.30
2023-03-07T20:13:15.836Z,64.60
2023-03-07T20:16:20.423Z,64.00
2023-03-07T20:19:23.368Z,64.20
2023-03-07T20:22:28.524Z,64.50
2023-03-07T20:25:31.896Z,64.20
2023-03-07T20:28:34.888Z,64.20
2023-03-07T20:31:39.219Z,63.90
2023-03-07T20:34:42.336Z,64.40
2023-03-07T20:37:46.531Z,64.00
2023-03-07T20:40:49.391Z,64.20
2023-03-07T20:43:53.591Z,64.10
2023-03-07T20:46:56.684Z,64.30
2023-03-07T20:49:59.518Z,64.00
2023-03-07T20:53:03.755Z,64.20
2023-03-07T20:56:07.890Z,64.20
2023-03-07T20:59:15.276Z,64.20
2023-03-07T21:02:18.156Z,64.20
2023-03-07T21:05:21.001Z,64.20
2023-03-07T21:08:25.470Z,65.00
2023-03-07T21:11:31.358Z,65.40
2023-03-07T21:14:34.272Z,65.30
2023-03-07T21:17:37.140Z,65.00
2023-03-07T21:20:40.707Z,65.00
2023-03-07T21:23:45.619Z,64.70
2023-03-07T21:26:48.467Z,64.90
2023-03-07T21:29:51.312Z,65.50
2023-03-07T21:32:56.896Z,65.40
2023-03-07T21:36:00.343Z,65.20
2023-03-07T21:39:07.911Z,65.60
2023-03-07T21:42:10.959Z,65.40
2023-03-07T21:45:14.461Z,65.70
2023-03-07T21:48:19.263Z,66.20
2023-03-07T21:51:22.431Z,66.70
2023-03-07T21:54:26.702Z,67.50
2023-03-07T21:57:29.834Z,67.60
2023-03-07T22:00:33.462Z,68.20
2023-03-07T22:03:36.328Z,68.50
2023-03-07T22:06:39.208Z,68.30
2023-03-07T22:09:43.395Z,68.20
2023-03-07T22:12:46.277Z,68.50
2023-03-07T22:15:49.208Z,68.60
2023-03-07T22:18:56.046Z,68.50
2023-03-07T22:21:58.886Z,68.90
2023-03-07T22:25:03.341Z,68.80
2023-03-07T22:28:06.290Z,67.70
2023-03-07T22:31:11.035Z,67.50
2023-03-07T22:34:13.888Z,68.40
2023-03-07T22:37:16.744Z,67.80
2023-03-07T22:40:21.497Z,68.70
2023-03-07T22:43:24.447Z,68.40
2023-03-07T22:46:27.417Z,68.50
2023-03-07T22:49:30.472Z,68.80
2023-03-07T22:52:33.316Z,69.10
2023-03-07T22:55:42.252Z,69.60
2023-03-07T22:58:45.163Z,70.30
2023-03-07T23:01:48.539Z,71.10
2023-03-07T23:04:53.510Z,71.90
2023-03-07T23:07:56.592Z,72.00
2023-03-07T23:11:03.318Z,71.80
2023-03-07T23:14:06.290Z,72.10
2023-03-07T23:17:09.132Z,72.50
2023-03-07T23:20:13.221Z,72.80
2023-03-07T23:23:16.041Z,72.50
2023-03-07T23:26:22.638Z,72.50
2023-03-07T23:29:25.488Z,72.50
2023-03-07T23:32:28.528Z,72.00
2023-03-07T23:35:34.024Z,72.20
2023-03-07T23:38:36.870Z,72.40
2023-03-07T23:41:41.061Z,72.50
2023-03-07T23:44:44.276Z,72.90
2023-03-07T23:47:47.106Z,72.90
2023-03-07T23:50:50.447Z,73.30
2023-03-07T23:53:53.507Z,73.10
2023-03-07T23:56:57.679Z,72.80
